Terminal Aerodrome Forecast
Issued by NWS Upton, NY

Home | Current Version | Previous Version | Text Only | Print | Product List | Glossary On
Versions: 1 2 3 4 5 6 7 8 9 10 11 12 13 14 15 16 17 18 19 20 21 22 23 24 25 26 27 28 29 30 31 32 33 34 35 36
850
FTUS41 KOKX 242032 AAA
TAFJFK
TAF AMD
KJFK 242032Z 2421/2524 01007KT 6SM -SHRA SCT025 OVC050
     FM250000 04006KT 6SM -SHRA SCT020 OVC040
     FM250300 06008KT 6SM -SHRA SCT010 BKN020 OVC040
     FM250800 08012G19KT 3SM RA BR OVC008
     FM251400 09015G24KT 2SM RA BR OVC007
     FM251800 07006KT 2SM -RADZ BR OVC006
      TEMPO 2518/2521 1SM BR OVC004
     FM252100 36005KT 4SM -SHRA BR BKN015=

USA.gov is the U.S. government's official web portal to all federal, state and local government web resources and services.